Time;durP1;ratioP1;P1;durP2;ratioP2;P2;SDS_P1;SDS_P2;PMS_P1;PMS_P2;Temp;Humidity;BMP_temperature;BMP_pressure;BME280_temperature;BME280_humidity;BME280_pressure;Samples;Min_cycle;Max_cycle;Signal;HPM_P1;HPM_P2
2022/08/17 00:00:30;;;;;;;31.20;28.30;;;19.10;99.90;;;;;;5010576;28;20048;-66
2022/08/17 00:02:56;;;;;;;30.08;27.35;;;19.00;99.90;;;;;;5008349;28;20033;-65
2022/08/17 00:05:22;;;;;;;31.40;28.60;;;19.00;99.90;;;;;;5010107;28;20584;-66
2022/08/17 00:07:48;;;;;;;34.95;31.75;;;19.00;99.90;;;;;;4993645;28;20034;-66
2022/08/17 00:10:13;;;;;;;32.45;29.33;;;18.90;99.90;;;;;;5013900;28;20050;-66
2022/08/17 00:12:40;;;;;;;32.72;29.73;;;19.00;99.90;;;;;;5018244;28;20038;-66
2022/08/17 00:15:06;;;;;;;30.27;27.50;;;18.90;99.90;;;;;;5008938;28;20037;-66
2022/08/17 00:17:32;;;;;;;28.45;25.75;;;19.00;99.90;;;;;;5009848;28;20049;-66
2022/08/17 00:19:59;;;;;;;26.50;24.10;;;19.00;99.90;;;;;;5008806;28;20096;-66
2022/08/17 00:22:24;;;;;;;27.52;25.13;;;19.00;99.90;;;;;;5007179;28;20041;-66
2022/08/17 00:24:50;;;;;;;31.58;28.65;;;19.00;99.90;;;;;;5006970;28;20273;-66
2022/08/17 00:27:16;;;;;;;35.00;31.65;;;19.00;99.90;;;;;;5007659;28;20045;-66
2022/08/17 00:29:44;;;;;;;33.22;29.92;;;18.90;99.90;;;;;;5008455;28;20040;-66
2022/08/17 00:32:11;;;;;;;33.97;30.80;;;18.90;99.90;;;;;;5008025;28;20121;-66
2022/08/17 00:34:37;;;;;;;35.42;32.08;;;18.90;99.90;;;;;;5008136;28;20049;-66
2022/08/17 00:37:02;;;;;;;39.20;34.95;;;18.90;99.90;;;;;;5008500;28;20057;-66
2022/08/17 00:39:28;;;;;;;37.75;33.67;;;18.90;99.90;;;;;;5023248;28;20109;-66
2022/08/17 00:41:53;;;;;;;34.80;31.30;;;18.90;99.90;;;;;;5007627;28;20057;-66
2022/08/17 00:44:19;;;;;;;55.80;38.65;;;18.90;99.90;;;;;;5008728;28;20038;-66
2022/08/17 00:46:46;;;;;;;54.97;40.95;;;18.90;99.90;;;;;;5008994;28;20060;-66
2022/08/17 00:49:14;;;;;;;69.57;39.90;;;18.90;99.90;;;;;;5009151;28;20042;-66
2022/08/17 00:51:56;;;;;;;43.95;39.15;;;18.90;99.90;;;;;;5006711;28;20046;-66
2022/08/17 00:54:29;;;;;;;42.67;38.17;;;18.90;99.90;;;;;;5002159;28;20117;-66
2022/08/17 00:57:09;;;;;;;108.28;39.40;;;18.90;99.90;;;;;;5007950;28;20092;-66
2022/08/17 00:59:44;;;;;;;98.28;38.17;;;18.90;99.90;;;;;;5005541;28;20073;-66
2022/08/17 01:02:12;;;;;;;84.95;38.35;;;18.90;99.90;;;;;;5010261;28;20065;-66
2022/08/17 01:04:38;;;;;;;64.95;34.47;;;18.80;99.90;;;;;;4991031;28;20052;-66
2022/08/17 01:07:05;;;;;;;42.47;31.88;;;18.90;99.90;;;;;;5009276;28;20143;-66
2022/08/17 01:09:31;;;;;;;78.93;32.72;;;18.70;99.90;;;;;;5007242;28;20058;-66
2022/08/17 01:11:57;;;;;;;150.50;33.88;;;18.60;99.90;;;;;;4999610;28;20031;-66
2022/08/17 01:14:24;;;;;;;34.30;30.98;;;18.60;99.90;;;;;;5005395;28;20709;-66
2022/08/17 01:16:53;;;;;;;30.73;27.75;;;18.60;99.90;;;;;;5008611;28;20048;-66
2022/08/17 01:19:39;;;;;;;168.40;35.45;;;18.60;99.90;;;;;;5009203;28;20042;-66
2022/08/17 01:22:09;;;;;;;191.88;37.28;;;18.60;99.90;;;;;;5009120;28;20054;-66
2022/08/17 01:24:37;;;;;;;43.50;33.10;;;18.50;99.90;;;;;;5008697;28;20522;-66
2022/08/17 01:27:03;;;;;;;80.38;35.65;;;18.50;99.90;;;;;;4994016;28;20030;-66
2022/08/17 01:29:30;;;;;;;182.13;39.00;;;18.50;99.90;;;;;;5015103;28;20026;-66
2022/08/17 01:32:03;;;;;;;40.42;33.95;;;18.40;99.90;;;;;;4996181;28;20076;-66
2022/08/17 01:34:29;;;;;;;36.17;32.65;;;18.40;99.90;;;;;;4996553;28;20041;-66
2022/08/17 01:36:55;;;;;;;60.70;35.63;;;18.40;99.90;;;;;;5012642;28;20455;-66
2022/08/17 01:39:26;;;;;;;47.67;33.10;;;18.40;99.90;;;;;;5012542;28;20062;-66
2022/08/17 01:41:59;;;;;;;68.47;33.38;;;18.40;99.90;;;;;;5011221;28;20069;-66
2022/08/17 01:44:26;;;;;;;88.93;35.80;;;18.40;99.90;;;;;;5009929;28;20080;-66
2022/08/17 01:46:52;;;;;;;83.38;36.17;;;18.40;99.90;;;;;;5011023;28;20088;-66
2022/08/17 01:49:18;;;;;;;76.45;36.35;;;18.30;99.90;;;;;;5010078;28;20030;-66
2022/08/17 01:51:44;;;;;;;48.45;35.90;;;18.20;99.90;;;;;;5012261;28;20049;-66
2022/08/17 01:54:13;;;;;;;45.33;35.78;;;18.20;99.90;;;;;;5012217;28;20054;-66
2022/08/17 01:56:43;;;;;;;61.10;36.65;;;18.30;99.90;;;;;;5012108;28;20434;-66
2022/08/17 01:59:09;;;;;;;41.72;35.53;;;18.30;99.90;;;;;;5010169;28;20072;-66
2022/08/17 02:01:35;;;;;;;40.30;34.25;;;18.40;99.90;;;;;;5009893;28;20041;-66
2022/08/17 02:04:02;;;;;;;41.03;33.58;;;18.40;99.90;;;;;;5011324;28;20057;-66
2022/08/17 02:06:30;;;;;;;89.00;39.58;;;18.40;99.90;;;;;;5008204;28;20038;-66
2022/08/17 02:08:56;;;;;;;41.10;35.30;;;18.40;99.90;;;;;;5011746;28;20385;-66
2022/08/17 02:11:22;;;;;;;36.92;32.85;;;18.30;99.90;;;;;;5011102;28;20037;-66
2022/08/17 02:13:49;;;;;;;90.13;37.40;;;18.30;99.90;;;;;;5011903;28;20069;-66
2022/08/17 02:16:15;;;;;;;54.20;34.92;;;18.30;99.90;;;;;;5008012;28;20045;-66
2022/08/17 02:18:41;;;;;;;156.55;37.80;;;18.30;99.90;;;;;;4995483;28;20049;-66
2022/08/17 02:21:07;;;;;;;171.73;39.88;;;18.30;99.90;;;;;;5009594;28;20522;-66
2022/08/17 02:23:37;;;;;;;217.40;39.38;;;18.30;99.90;;;;;;5010302;28;20128;-66
2022/08/17 02:26:04;;;;;;;203.50;38.75;;;18.30;99.90;;;;;;5012235;28;20115;-66
2022/08/17 02:28:30;;;;;;;129.68;38.00;;;18.20;99.90;;;;;;5019527;28;20041;-66
2022/08/17 02:30:56;;;;;;;178.82;40.60;;;18.10;99.90;;;;;;4995328;28;20424;-66
2022/08/17 02:33:22;;;;;;;45.85;34.22;;;18.00;99.90;;;;;;5010091;28;20041;-66
2022/08/17 02:35:48;;;;;;;43.60;31.80;;;18.00;99.90;;;;;;5013689;28;20037;-66
2022/08/17 02:38:13;;;;;;;79.57;34.03;;;18.10;99.90;;;;;;5019798;28;20056;-66
2022/08/17 02:40:39;;;;;;;34.38;30.88;;;18.10;99.90;;;;;;5027193;28;20052;-66
2022/08/17 02:43:09;;;;;;;37.13;33.72;;;18.10;99.90;;;;;;5016444;28;20079;-66
2022/08/17 02:45:35;;;;;;;36.20;32.92;;;18.10;99.90;;;;;;5041861;28;20124;-66
2022/08/17 02:48:01;;;;;;;33.38;30.58;;;18.10;99.90;;;;;;5016933;28;20077;-66
2022/08/17 02:50:27;;;;;;;33.47;30.58;;;18.20;99.90;;;;;;5014569;28;20037;-66
2022/08/17 02:52:53;;;;;;;33.75;30.98;;;18.20;99.90;;;;;;5013517;28;20152;-66
2022/08/17 02:55:21;;;;;;;35.10;32.03;;;18.20;99.90;;;;;;4997101;28;20479;-66
2022/08/17 02:57:48;;;;;;;40.38;36.53;;;18.10;99.90;;;;;;5015198;28;20399;-66
2022/08/17 03:00:21;;;;;;;40.05;35.95;;;18.00;99.90;;;;;;5015260;28;20049;-66
2022/08/17 03:02:47;;;;;;;41.00;37.10;;;18.00;99.90;;;;;;5015212;28;20402;-66
2022/08/17 03:05:16;;;;;;;57.45;38.33;;;17.90;99.90;;;;;;4998632;28;20406;-66
2022/08/17 03:07:42;;;;;;;39.75;36.03;;;17.80;99.90;;;;;;5012021;28;20045;-66
2022/08/17 03:10:08;;;;;;;41.25;37.40;;;17.80;99.90;;;;;;4995480;28;20041;-66
2022/08/17 03:12:37;;;;;;;42.33;38.22;;;17.80;99.90;;;;;;5014479;28;20052;-65
2022/08/17 03:15:25;;;;;;;44.35;39.90;;;17.70;99.90;;;;;;4992097;28;20438;-66
2022/08/17 03:17:51;;;;;;;44.33;39.78;;;17.80;99.90;;;;;;5013098;28;20045;-66
2022/08/17 03:20:18;;;;;;;45.42;40.42;;;17.70;99.90;;;;;;5028715;28;20049;-66
2022/08/17 03:22:50;;;;;;;45.70;40.60;;;17.70;99.90;;;;;;5004207;28;20053;-66
2022/08/17 03:25:18;;;;;;;;;;;17.70;99.90;;;;;;5013062;28;20086;-66
2022/08/17 03:27:44;;;;;;;44.05;39.15;;;17.60;99.90;;;;;;5032232;28;19963;-66
2022/08/17 03:30:12;;;;;;;48.97;42.60;;;17.60;99.90;;;;;;5014344;28;20052;-66
2022/08/17 03:32:43;;;;;;;51.10;42.90;;;17.60;99.90;;;;;;5032096;28;20033;-66
2022/08/17 03:35:11;;;;;;;44.83;39.40;;;17.60;99.90;;;;;;5014809;28;20056;-66
2022/08/17 03:37:36;;;;;;;43.85;39.40;;;17.60;99.90;;;;;;5014234;28;20099;-66
2022/08/17 03:40:03;;;;;;;48.10;40.83;;;17.60;99.90;;;;;;5030036;28;20040;-66
2022/08/17 03:42:29;;;;;;;44.42;39.88;;;17.60;99.90;;;;;;4992013;28;20049;-66
2022/08/17 03:44:56;;;;;;;39.00;35.35;;;17.70;99.90;;;;;;5017475;28;20041;-66
2022/08/17 03:58:22;;;;;;;42.00;37.83;;;17.60;99.90;;;;;;5012349;28;20046;-66
2022/08/17 04:00:49;;;;;;;37.72;34.17;;;17.60;99.90;;;;;;5010376;28;20052;-66
2022/08/17 04:03:15;;;;;;;39.42;35.50;;;17.60;99.90;;;;;;5007626;28;20056;-66
2022/08/17 04:05:41;;;;;;;40.00;35.90;;;17.60;99.90;;;;;;5013666;28;20511;-66
2022/08/17 04:08:07;;;;;;;39.28;35.05;;;17.60;99.90;;;;;;5013371;28;20117;-66
2022/08/17 04:10:34;;;;;;;37.22;33.53;;;17.60;99.90;;;;;;5025923;28;20049;-66
2022/08/17 04:13:00;;;;;;;38.05;34.40;;;17.60;99.90;;;;;;5012306;28;20391;-66
2022/08/17 04:15:27;;;;;;;35.92;32.15;;;17.60;99.90;;;;;;5010355;28;20132;-66
2022/08/17 04:17:53;;;;;;;113.47;39.38;;;17.60;99.90;;;;;;4997136;28;20045;-66
2022/08/17 04:20:20;;;;;;;94.25;38.80;;;17.60;99.90;;;;;;5018413;28;20049;-66
2022/08/17 04:23:02;;;;;;;39.83;35.83;;;17.50;99.90;;;;;;5035616;28;20084;-66
2022/08/17 04:25:31;;;;;;;;;;;17.60;99.90;;;;;;5012836;28;20049;-66
2022/08/17 04:27:57;;;;;;;38.00;34.50;;;17.60;99.90;;;;;;5013757;28;19970;-66
2022/08/17 04:30:24;;;;;;;45.38;40.83;;;17.70;99.90;;;;;;5022202;28;20041;-66
2022/08/17 04:33:04;;;;;;;46.75;41.90;;;17.70;99.90;;;;;;5000667;28;20029;-66
2022/08/17 04:35:32;;;;;;;45.60;41.08;;;17.70;99.90;;;;;;5011283;28;20048;-66
2022/08/17 04:37:58;;;;;;;44.42;40.03;;;17.70;99.90;;;;;;5018118;28;20399;-66
2022/08/17 04:43:14;;;;;;;46.70;41.80;;;17.80;99.90;;;;;;5017834;28;20683;-66
2022/08/17 04:45:42;;;;;;;41.47;37.45;;;17.70;99.90;;;;;;5023166;28;20056;-66
2022/08/17 04:48:08;;;;;;;37.00;33.72;;;17.80;99.90;;;;;;5012000;28;20036;-66
2022/08/17 04:50:35;;;;;;;36.53;33.22;;;17.90;99.90;;;;;;5014947;28;20124;-66
2022/08/17 04:53:01;;;;;;;39.03;35.40;;;18.00;99.90;;;;;;5014451;28;20445;-66
2022/08/17 04:55:26;;;;;;;42.83;38.53;;;18.00;99.90;;;;;;5013028;28;20129;-66
2022/08/17 04:57:52;;;;;;;41.35;37.15;;;18.00;99.90;;;;;;5013159;28;20117;-66
2022/08/17 05:00:19;;;;;;;43.00;38.50;;;18.10;99.90;;;;;;5015395;28;20041;-66
2022/08/17 05:02:49;;;;;;;45.40;40.70;;;18.10;99.90;;;;;;5016573;28;20471;-66
2022/08/17 05:05:24;;;;;;;45.70;40.90;;;18.10;99.90;;;;;;5017383;28;20443;-65
2022/08/17 05:07:56;;;;;;;46.55;41.55;;;18.00;99.90;;;;;;5017373;28;20048;-66
2022/08/17 05:10:23;;;;;;;48.30;43.10;;;18.10;99.90;;;;;;5014542;28;20474;-66
2022/08/17 05:13:00;;;;;;;48.10;42.85;;;18.00;99.90;;;;;;5012148;28;20045;-66
2022/08/17 05:15:28;;;;;;;53.35;45.28;;;18.00;99.90;;;;;;5017114;28;20045;-66
2022/08/17 05:17:54;;;;;;;46.72;41.90;;;18.00;99.90;;;;;;5017514;28;20091;-66
2022/08/17 05:20:20;;;;;;;41.30;37.13;;;18.10;99.90;;;;;;5020606;28;20049;-66
2022/08/17 05:22:49;;;;;;;45.13;40.55;;;18.20;99.90;;;;;;5013785;28;20057;-66
2022/08/17 05:25:21;;;;;;;46.85;41.97;;;18.30;99.90;;;;;;5008316;28;20045;-66
2022/08/17 05:27:47;;;;;;;49.85;44.47;;;18.30;99.90;;;;;;5011941;28;20042;-66
2022/08/17 05:30:13;;;;;;;52.40;45.55;;;18.30;99.90;;;;;;5016503;28;20033;-66
2022/08/17 05:32:38;;;;;;;46.05;41.13;;;18.30;99.90;;;;;;5013980;28;20052;-66
2022/08/17 05:35:05;;;;;;;47.97;43.03;;;18.20;99.90;;;;;;5016611;28;20037;-66
2022/08/17 05:37:30;;;;;;;52.35;44.88;;;18.30;99.90;;;;;;5031654;28;20065;-66
2022/08/17 05:39:56;;;;;;;46.67;41.78;;;18.40;99.90;;;;;;5010703;28;20128;-66
2022/08/17 05:42:22;;;;;;;53.80;44.97;;;18.40;99.90;;;;;;5023349;28;20642;-66
2022/08/17 05:44:48;;;;;;;50.72;44.28;;;18.40;99.90;;;;;;5015138;28;20041;-66
2022/08/17 05:47:14;;;;;;;48.40;43.30;;;18.40;99.90;;;;;;4996723;28;20083;-66
2022/08/17 05:49:39;;;;;;;47.22;42.38;;;18.50;99.90;;;;;;5012500;28;20034;-66
2022/08/17 05:52:20;;;;;;;48.90;43.47;;;18.60;99.90;;;;;;5016464;28;20573;-66
2022/08/17 05:55:16;;;;;;;48.60;42.10;;;18.70;99.90;;;;;;5016258;28;20057;-66
2022/08/17 05:57:48;;;;;;;50.63;45.17;;;18.70;99.90;;;;;;5010745;28;20037;-66
2022/08/17 06:00:38;;;;;;;55.70;47.97;;;18.80;99.90;;;;;;5014019;28;20387;-65
2022/08/17 06:03:22;;;;;;;58.20;48.88;;;18.80;99.90;;;;;;5011300;28;20041;-66
2022/08/17 06:05:53;;;;;;;57.60;49.50;;;18.80;99.90;;;;;;5030677;28;20033;-66
2022/08/17 06:08:41;;;;;;;51.08;45.65;;;18.80;99.90;;;;;;5005440;28;20038;-66
2022/08/17 06:11:33;;;;;;;56.63;45.78;;;18.80;99.90;;;;;;5014599;28;20436;-66
2022/08/17 06:14:23;;;;;;;50.20;44.10;;;18.90;99.90;;;;;;5012909;28;20042;-66
2022/08/17 06:16:54;;;;;;;51.30;45.42;;;18.90;99.90;;;;;;5028008;28;20030;-66
2022/08/17 06:19:32;;;;;;;53.10;46.50;;;18.90;99.90;;;;;;5006624;28;20046;-66
2022/08/17 06:21:59;;;;;;;60.45;50.78;;;19.00;99.90;;;;;;5007149;28;20108;-66
2022/08/17 06:24:36;;;;;;;60.97;51.15;;;19.00;99.90;;;;;;5005448;28;20507;-66
2022/08/17 06:27:17;;;;;;;62.83;54.30;;;19.10;99.90;;;;;;5012035;28;20045;-66
2022/08/17 06:30:19;;;;;;;59.33;49.50;;;19.10;99.90;;;;;;5010158;28;20047;-66
2022/08/17 06:32:48;;;;;;;55.70;48.03;;;19.10;99.90;;;;;;5019147;28;20041;-66
2022/08/17 06:35:18;;;;;;;59.95;49.55;;;19.10;99.90;;;;;;5025519;28;20502;-66
2022/08/17 06:38:10;;;;;;;72.13;56.83;;;19.20;99.90;;;;;;5005743;28;20064;-66
2022/08/17 06:40:45;;;;;;;69.22;53.95;;;19.20;99.90;;;;;;4997774;28;20056;-66
2022/08/17 06:43:31;;;;;;;70.50;55.92;;;19.10;99.90;;;;;;5019649;28;20531;-66
2022/08/17 06:46:12;;;;;;;78.20;61.92;;;19.20;99.90;;;;;;5024207;28;20037;-66
2022/08/17 06:49:13;;;;;;;79.80;59.75;;;19.10;99.90;;;;;;5013578;28;20049;-66
2022/08/17 06:51:50;;;;;;;78.38;59.60;;;19.20;99.90;;;;;;5015975;28;20472;-66
2022/08/17 06:54:32;;;;;;;83.38;62.92;;;19.20;99.90;;;;;;5001476;28;20064;-66
2022/08/17 06:57:34;;;;;;;77.28;59.65;;;19.20;99.90;;;;;;5031182;28;20196;-66
2022/08/17 07:00:01;;;;;;;;;;;19.30;99.90;;;;;;4999173;28;20419;-67
2022/08/17 07:02:30;;;;;;;71.03;56.65;;;19.40;99.90;;;;;;5006411;28;20271;-66
2022/08/17 07:05:00;;;;;;;71.13;56.63;;;19.50;99.90;;;;;;5009892;28;20053;-66
2022/08/17 07:10:11;;;;;;;58.08;50.30;;;19.60;99.90;;;;;;5018809;28;20073;-66
2022/08/17 07:12:41;;;;;;;66.30;54.30;;;19.70;99.90;;;;;;5007292;28;20026;-66
2022/08/17 07:15:13;;;;;;;71.95;57.28;;;19.80;99.90;;;;;;4998375;28;20049;-66
2022/08/17 07:17:39;;;;;;;;;;;19.70;99.90;;;;;;4999202;28;20052;-67
2022/08/17 07:20:14;;;;;;;69.68;56.15;;;19.80;99.90;;;;;;5014065;28;19917;-66
2022/08/17 07:22:49;;;;;;;65.03;53.53;;;19.90;99.90;;;;;;5013782;28;20045;-67
2022/08/17 07:25:20;;;;;;;64.10;54.33;;;19.90;99.90;;;;;;5013644;28;20040;-67
2022/08/17 07:27:51;;;;;;;60.30;51.65;;;20.10;99.90;;;;;;4998420;28;20064;-67
2022/08/17 07:30:25;;;;;;;66.15;54.78;;;;;;;;;;5012087;28;20095;-66
2022/08/17 07:32:56;;;;;;;65.53;54.20;;;20.20;99.90;;;;;;5013621;28;20049;-67
2022/08/17 07:35:27;;;;;;;64.35;54.63;;;20.20;99.90;;;;;;5014419;28;20053;-67
2022/08/17 07:38:23;;;;;;;63.47;55.08;;;20.10;99.90;;;;;;5008388;28;20421;-67
2022/08/17 07:41:01;;;;;;;65.05;53.55;;;20.10;99.90;;;;;;5003759;28;20515;-66
2022/08/17 07:43:40;;;;;;;71.05;55.20;;;20.00;99.90;;;;;;5006670;28;20049;-67
2022/08/17 07:49:09;;;;;;;65.53;51.17;;;20.00;99.90;;;;;;5023301;28;20061;-67
2022/08/17 07:51:57;;;;;;;65.05;50.10;;;20.10;99.90;;;;;;5034183;28;20040;-67
2022/08/17 07:54:34;;;;;;;60.53;47.35;;;20.30;99.90;;;;;;5082971;22;20056;-67
2022/08/17 07:57:12;;;;;;;61.17;48.45;;;20.50;99.90;;;;;;5074063;28;20044;-67
2022/08/17 08:00:02;;;;;;;56.78;45.95;;;20.70;99.90;;;;;;5063571;28;20032;-67
2022/08/17 08:02:40;;;;;;;55.50;45.88;;;20.90;99.90;;;;;;5067046;28;20085;-67
2022/08/17 08:05:18;;;;;;;49.15;43.45;;;21.10;99.90;;;;;;5063035;28;20033;-67
2022/08/17 08:07:49;;;;;;;47.38;41.33;;;21.30;99.90;;;;;;5067725;28;20048;-67
2022/08/17 08:10:28;;;;;;;49.88;43.72;;;;;;;;;;5075276;28;20495;-67
2022/08/17 08:13:23;;;;;;;44.42;39.33;;;21.30;99.90;;;;;;5061241;28;20105;-67
2022/08/17 08:15:55;;;;;;;46.55;41.60;;;21.70;99.90;;;;;;5052638;28;20048;-67
2022/08/17 08:18:20;;;;;;;47.05;42.05;;;21.70;99.90;;;;;;5070083;28;20050;-67
2022/08/17 08:20:54;;;;;;;44.78;40.17;;;21.80;99.90;;;;;;5058072;28;20127;-67
2022/08/17 08:23:24;;;;;;;43.63;39.13;;;21.90;99.90;;;;;;5058382;28;20514;-67
2022/08/17 08:26:12;;;;;;;44.83;40.20;;;21.90;99.90;;;;;;5057015;28;20049;-67
2022/08/17 08:29:05;;;;;;;41.63;37.63;;;21.70;99.90;;;;;;5064548;28;20370;-67
2022/08/17 08:31:49;;;;;;;42.50;38.20;;;21.60;99.90;;;;;;5065839;28;20044;-67
2022/08/17 08:34:44;;;;;;;44.63;40.20;;;21.60;99.90;;;;;;5052027;28;20377;-67
2022/08/17 08:37:26;;;;;;;43.20;38.47;;;21.70;99.90;;;;;;5069133;28;20040;-67
2022/08/17 08:39:55;;;;;;;42.17;37.60;;;21.80;99.90;;;;;;5069769;28;20548;-67
2022/08/17 08:42:33;;;;;;;43.22;38.63;;;21.90;99.90;;;;;;5072710;28;20453;-67
2022/08/17 08:45:04;;;;;;;43.95;39.30;;;22.00;99.90;;;;;;5066781;28;20040;-67
2022/08/17 08:47:58;;;;;;;42.05;37.65;;;;;;;;;;5067727;28;20098;-67
2022/08/17 08:50:58;;;;;;;45.47;39.33;;;22.20;99.90;;;;;;5066913;28;20102;-67
2022/08/17 08:53:42;;;;;;;40.80;36.70;;;21.80;99.90;;;;;;5080692;28;20048;-67
2022/08/17 08:56:23;;;;;;;41.53;37.05;;;21.70;99.90;;;;;;5067702;28;20048;-67
2022/08/17 08:59:03;;;;;;;42.42;38.03;;;21.60;99.90;;;;;;5069094;28;20472;-67
2022/08/17 09:01:45;;;;;;;38.90;34.72;;;21.50;99.90;;;;;;5076785;28;20032;-67
2022/08/17 09:04:26;;;;;;;41.00;36.85;;;21.80;99.90;;;;;;5050805;28;20112;-67
2022/08/17 09:07:03;;;;;;;44.03;39.63;;;21.70;99.90;;;;;;5064287;28;20111;-67
2022/08/17 09:10:05;;;;;;;43.78;39.25;;;21.90;99.90;;;;;;5069353;28;20616;-67
2022/08/17 09:12:52;;;;;;;41.35;37.28;;;22.10;99.90;;;;;;5064551;28;20044;-67
2022/08/17 09:15:26;;;;;;;37.83;34.25;;;22.20;99.90;;;;;;5050043;28;20127;-67
2022/08/17 09:18:17;;;;;;;42.45;38.35;;;22.60;99.90;;;;;;5070127;28;20032;-67
2022/08/17 09:20:49;;;;;;;47.00;42.15;;;23.00;99.90;;;;;;5059134;28;20040;-67
2022/08/17 09:23:29;;;;;;;46.88;41.97;;;22.90;99.90;;;;;;5068371;28;20044;-67
2022/08/17 09:26:05;;;;;;;45.95;40.88;;;22.90;99.90;;;;;;5062268;28;20402;-66
2022/08/17 09:28:37;;;;;;;45.85;40.95;;;22.80;99.90;;;;;;5069640;28;20032;-65
2022/08/17 09:31:09;;;;;;;46.45;41.65;;;22.70;99.90;;;;;;5066885;28;20062;-64
2022/08/17 09:33:41;;;;;;;43.25;38.95;;;22.60;99.90;;;;;;5070488;28;20040;-65
2022/08/17 09:36:15;;;;;;;40.08;36.10;;;22.60;99.90;;;;;;5067150;28;20500;-64
2022/08/17 09:39:06;;;;;;;39.63;35.45;;;22.70;99.90;;;;;;5067559;28;20282;-65
2022/08/17 09:42:09;;;;;;;39.30;35.35;;;22.80;99.90;;;;;;5042672;28;20047;-64
2022/08/17 09:44:39;;;;;;;39.47;35.47;;;22.70;99.90;;;;;;5054051;28;20565;-65
2022/08/17 09:47:30;;;;;;;40.25;36.15;;;22.60;99.90;;;;;;5062957;28;20071;-65
2022/08/17 09:50:22;;;;;;;40.28;36.17;;;22.60;99.90;;;;;;5068930;28;20050;-64
2022/08/17 09:52:52;;;;;;;44.92;40.28;;;22.70;99.90;;;;;;5072440;28;20621;-65
2022/08/17 09:55:19;;;;;;;41.17;36.95;;;22.70;99.90;;;;;;5072738;28;20048;-64
2022/08/17 09:58:00;;;;;;;43.88;39.20;;;22.70;99.90;;;;;;5073685;28;20059;-64
2022/08/17 10:00:33;;;;;;;44.80;40.08;;;22.70;99.90;;;;;;5073518;28;20059;-65
2022/08/17 10:03:08;;;;;;;43.30;38.67;;;22.70;99.90;;;;;;5071020;28;20111;-65
2022/08/17 10:05:55;;;;;;;41.63;37.20;;;22.40;99.90;;;;;;5071830;28;20041;-64
2022/08/17 10:08:40;;;;;;;42.15;37.70;;;22.50;99.90;;;;;;5070984;28;20040;-64
2022/08/17 10:14:49;;;;;;;39.78;35.55;;;22.30;99.90;;;;;;5062707;28;20450;-64
2022/08/17 10:17:33;;;;;;;38.03;34.05;;;22.30;99.90;;;;;;5056039;28;20040;-64
2022/08/17 10:20:17;;;;;;;34.75;31.25;;;22.30;99.90;;;;;;5058019;28;20049;-64
2022/08/17 10:28:37;;;;;;;36.42;32.50;;;22.80;99.90;;;;;;5065954;28;20045;-64
2022/08/17 10:31:06;;;;;;;38.65;34.70;;;23.00;99.90;;;;;;5069845;28;20374;-65
2022/08/17 10:33:58;;;;;;;38.58;34.38;;;23.00;99.90;;;;;;5071207;28;20040;-64
2022/08/17 10:36:47;;;;;;;39.47;35.38;;;23.00;99.90;;;;;;5041992;28;20056;-64
2022/08/17 10:39:33;;;;;;;38.90;34.88;;;23.10;99.90;;;;;;5067686;28;20051;-64
2022/08/17 10:42:13;;;;;;;42.10;37.70;;;23.20;99.90;;;;;;5055348;28;20045;-64
2022/08/17 10:44:55;;;;;;;37.35;33.35;;;23.00;99.90;;;;;;5068906;28;20758;-64
2022/08/17 10:47:25;;;;;;;43.83;39.03;;;23.20;99.90;;;;;;5065109;28;20044;-64
2022/08/17 10:49:54;;;;;;;41.37;36.97;;;23.30;99.90;;;;;;5062601;28;20508;-64
2022/08/17 10:52:24;;;;;;;40.22;36.15;;;23.50;99.90;;;;;;5064307;28;20299;-64
2022/08/17 10:54:50;;;;;;;40.22;36.03;;;23.50;99.90;;;;;;5061044;28;20394;-64
2022/08/17 10:57:40;;;;;;;43.53;38.97;;;23.60;99.90;;;;;;5072300;28;20045;-64
2022/08/17 11:00:14;;;;;;;41.83;37.60;;;23.70;99.90;;;;;;5069264;28;20063;-64
2022/08/17 11:02:44;;;;;;;42.10;38.10;;;23.90;99.90;;;;;;5071575;28;20055;-64
2022/08/17 11:05:22;;;;;;;40.10;36.08;;;24.00;99.90;;;;;;5074468;28;20712;-64
2022/08/17 11:08:06;;;;;;;40.20;36.33;;;24.10;99.90;;;;;;5054896;28;20047;-64
2022/08/17 11:11:13;;;;;;;39.45;35.58;;;24.20;99.90;;;;;;5071286;28;20135;-64
2022/08/17 11:14:12;;;;;;;39.90;36.10;;;24.60;99.90;;;;;;5069898;28;20036;-64
2022/08/17 11:17:02;;;;;;;36.22;32.63;;;24.50;99.90;;;;;;5061776;28;20041;-64
2022/08/17 11:19:42;;;;;;;39.30;35.28;;;24.90;99.90;;;;;;5061313;28;20055;-64
2022/08/17 11:22:25;;;;;;;36.67;33.28;;;25.00;99.90;;;;;;5050244;28;20045;-64
2022/08/17 11:24:52;;;;;;;35.33;32.10;;;25.20;99.90;;;;;;5070924;28;20089;-64
2022/08/17 11:27:35;;;;;;;28.92;26.45;;;25.50;99.90;;;;;;5070124;28;20053;-64
2022/08/17 11:30:05;;;;;;;21.23;19.40;;;25.60;99.90;;;;;;5069645;28;20040;-64
2022/08/17 11:32:48;;;;;;;25.70;23.13;;;25.00;99.90;;;;;;5069677;28;20043;-64
2022/08/17 11:35:20;;;;;;;23.73;21.52;;;25.20;99.90;;;;;;5070898;28;20571;-64
2022/08/17 11:38:25;;;;;;;22.58;20.58;;;25.00;99.90;;;;;;5069050;28;20365;-64
2022/08/17 11:41:13;;;;;;;23.27;21.17;;;25.10;99.90;;;;;;5074198;28;20152;-64
2022/08/17 11:43:56;;;;;;;25.67;23.20;;;25.10;99.90;;;;;;5070990;28;20049;-64
2022/08/17 11:51:32;;;;;;;29.55;26.95;;;24.70;99.90;;;;;;5066069;28;20045;-64
2022/08/17 11:52:51;;;;;;;30.98;28.05;;;24.40;99.90;;;;;;5057686;28;21573;-65
2022/08/17 11:55:33;;;;;;;28.17;25.67;;;24.40;99.90;;;;;;5061060;28;20637;-64
2022/08/17 11:58:02;;;;;;;23.23;21.08;;;24.50;99.90;;;;;;5063735;28;20044;-64
2022/08/17 12:00:48;;;;;;;26.70;24.35;;;24.90;99.90;;;;;;5060286;28;20394;-64
2022/08/17 12:03:38;;;;;;;26.35;24.02;;;24.90;99.90;;;;;;5066136;28;20036;-64
2022/08/17 12:06:29;;;;;;;23.40;21.10;;;24.70;99.90;;;;;;5077804;28;20085;-64
2022/08/17 12:09:07;;;;;;;20.52;18.63;;;24.60;99.90;;;;;;5065322;28;20648;-64
2022/08/17 12:12:02;;;;;;;22.13;20.13;;;24.70;99.90;;;;;;5058603;28;20143;-64
2022/08/17 12:14:31;;;;;;;22.65;20.45;;;24.70;99.90;;;;;;5065972;28;20063;-64
2022/08/17 12:17:06;;;;;;;21.67;19.80;;;24.60;99.90;;;;;;5058593;28;20467;-64
2022/08/17 12:19:32;;;;;;;19.50;17.80;;;24.50;99.90;;;;;;5068592;28;20040;-64
2022/08/17 12:22:09;;;;;;;18.45;16.77;;;24.40;99.90;;;;;;5049017;28;20051;-64
2022/08/17 12:24:50;;;;;;;14.98;13.65;;;24.60;99.90;;;;;;5070351;28;20485;-64
2022/08/17 12:27:30;;;;;;;15.23;13.82;;;24.70;99.90;;;;;;5068485;28;20123;-64
2022/08/17 12:29:57;;;;;;;17.50;15.90;;;24.80;99.90;;;;;;5061341;28;20095;-64
2022/08/17 12:32:29;;;;;;;15.30;14.00;;;24.20;99.90;;;;;;5070803;28;20037;-64
2022/08/17 12:34:55;;;;;;;14.60;13.20;;;24.20;99.90;;;;;;5070783;28;20047;-64
2022/08/17 12:37:26;;;;;;;14.57;13.27;;;24.40;99.90;;;;;;5069851;28;20382;-64
2022/08/17 12:40:15;;;;;;;14.00;12.82;;;24.50;99.90;;;;;;5063380;28;20037;-64
2022/08/17 12:43:17;;;;;;;15.07;13.57;;;24.60;99.90;;;;;;5066836;28;20064;-64
2022/08/17 12:45:45;;;;;;;13.98;12.88;;;24.50;99.90;;;;;;5059904;28;20033;-64
2022/08/17 12:48:20;;;;;;;15.15;13.70;;;24.50;99.90;;;;;;5064682;28;20115;-64
2022/08/17 12:50:46;;;;;;;14.10;12.82;;;24.30;99.90;;;;;;5067244;28;21861;-64
2022/08/17 12:53:23;;;;;;;13.43;12.23;;;24.60;99.90;;;;;;5068361;28;20093;-64
2022/08/17 12:55:50;;;;;;;12.88;11.70;;;24.10;99.90;;;;;;5083356;28;20517;-64
2022/08/17 12:58:20;;;;;;;12.95;11.75;;;23.80;99.90;;;;;;5049675;28;20045;-64
2022/08/17 13:00:54;;;;;;;11.45;10.35;;;23.80;99.90;;;;;;5063162;28;20048;-64
2022/08/17 13:03:23;;;;;;;12.27;11.15;;;23.90;99.90;;;;;;5064913;28;20083;-64
2022/08/17 13:05:51;;;;;;;12.13;10.93;;;23.90;99.90;;;;;;5065434;28;20496;-65
2022/08/17 13:08:25;;;;;;;13.50;12.20;;;24.10;99.90;;;;;;5067404;28;20083;-64
2022/08/17 13:11:16;;;;;;;14.80;13.48;;;24.10;99.90;;;;;;5066351;28;20032;-65
2022/08/17 13:13:45;;;;;;;15.30;13.90;;;23.90;99.90;;;;;;5040314;28;20114;-65
2022/08/17 13:16:11;;;;;;;15.20;13.80;;;23.80;99.90;;;;;;5059832;28;20033;-64
2022/08/17 13:18:45;;;;;;;18.40;16.30;;;23.80;99.90;;;;;;5070110;28;20044;-64
2022/08/17 13:21:22;;;;;;;15.88;14.27;;;23.90;99.90;;;;;;5064018;28;20087;-65
2022/08/17 13:24:10;;;;;;;16.20;14.60;;;23.80;99.90;;;;;;5071199;28;20037;-64
2022/08/17 13:26:56;;;;;;;16.70;15.05;;;23.80;99.90;;;;;;5072485;28;20445;-64
2022/08/17 13:29:40;;;;;;;16.58;14.95;;;24.00;99.90;;;;;;5071514;28;20112;-65
2022/08/17 13:32:05;;;;;;;16.02;14.63;;;23.90;99.90;;;;;;5072006;28;20040;-64
2022/08/17 13:34:34;;;;;;;17.60;15.80;;;24.00;99.90;;;;;;5074179;28;20044;-65